sensor_id;sensor_type;location;lat;lon;timestamp;P1;durP1;ratioP1;P2;durP2;ratioP2
39814;SDS011;25495;45.948;4.568;2022-11-14T00:00:53;12.98;;;6.68;;
39814;SDS011;25495;45.948;4.568;2022-11-14T00:03:23;10.32;;;5.75;;
39814;SDS011;25495;45.948;4.568;2022-11-14T00:05:50;66.30;;;23.70;;
39814;SDS011;25495;45.948;4.568;2022-11-14T00:08:20;51.00;;;18.30;;
39814;SDS011;25495;45.948;4.568;2022-11-14T00:10:50;21.50;;;9.50;;
39814;SDS011;25495;45.948;4.568;2022-11-14T00:13:23;11.15;;;5.95;;
39814;SDS011;25495;45.948;4.568;2022-11-14T00:15:50;11.13;;;5.38;;
39814;SDS011;25495;45.948;4.568;2022-11-14T00:18:19;9.93;;;5.40;;
39814;SDS011;25495;45.948;4.568;2022-11-14T00:20:48;13.63;;;4.95;;
39814;SDS011;25495;45.948;4.568;2022-11-14T00:23:18;8.95;;;4.18;;
39814;SDS011;25495;45.948;4.568;2022-11-14T00:25:46;9.88;;;4.53;;
39814;SDS011;25495;45.948;4.568;2022-11-14T00:28:13;8.65;;;3.85;;
39814;SDS011;25495;45.948;4.568;2022-11-14T00:30:46;4.55;;;3.00;;
39814;SDS011;25495;45.948;4.568;2022-11-14T00:33:13;9.23;;;4.93;;
39814;SDS011;25495;45.948;4.568;2022-11-14T00:35:48;25.52;;;10.85;;
39814;SDS011;25495;45.948;4.568;2022-11-14T00:38:23;10.07;;;4.88;;
39814;SDS011;25495;45.948;4.568;2022-11-14T00:40:49;39.90;;;15.02;;
39814;SDS011;25495;45.948;4.568;2022-11-14T00:43:22;31.92;;;12.75;;
39814;SDS011;25495;45.948;4.568;2022-11-14T00:45:48;12.02;;;6.10;;
39814;SDS011;25495;45.948;4.568;2022-11-14T00:48:15;25.75;;;11.30;;
39814;SDS011;25495;45.948;4.568;2022-11-14T00:50:42;92.38;;;36.53;;
39814;SDS011;25495;45.948;4.568;2022-11-14T00:53:09;39.95;;;16.90;;
39814;SDS011;25495;45.948;4.568;2022-11-14T00:55:36;50.67;;;20.45;;
39814;SDS011;25495;45.948;4.568;2022-11-14T00:58:03;33.60;;;14.18;;
39814;SDS011;25495;45.948;4.568;2022-11-14T01:00:29;17.77;;;9.45;;
39814;SDS011;25495;45.948;4.568;2022-11-14T01:02:57;31.40;;;13.20;;
39814;SDS011;25495;45.948;4.568;2022-11-14T01:05:24;11.70;;;5.57;;
39814;SDS011;25495;45.948;4.568;2022-11-14T01:07:53;5.95;;;3.63;;
39814;SDS011;25495;45.948;4.568;2022-11-14T01:10:20;14.70;;;6.75;;
39814;SDS011;25495;45.948;4.568;2022-11-14T01:12:48;13.77;;;6.15;;
39814;SDS011;25495;45.948;4.568;2022-11-14T01:17:44;12.70;;;4.93;;
39814;SDS011;25495;45.948;4.568;2022-11-14T01:20:11;8.63;;;4.15;;
39814;SDS011;25495;45.948;4.568;2022-11-14T01:22:41;9.43;;;3.85;;
39814;SDS011;25495;45.948;4.568;2022-11-14T01:25:12;7.72;;;3.75;;
39814;SDS011;25495;45.948;4.568;2022-11-14T01:27:42;7.60;;;4.35;;
39814;SDS011;25495;45.948;4.568;2022-11-14T01:30:12;12.73;;;4.10;;
39814;SDS011;25495;45.948;4.568;2022-11-14T01:32:41;15.18;;;6.38;;
39814;SDS011;25495;45.948;4.568;2022-11-14T01:35:09;6.75;;;3.78;;
39814;SDS011;25495;45.948;4.568;2022-11-14T01:37:37;9.07;;;4.55;;
39814;SDS011;25495;45.948;4.568;2022-11-14T01:40:03;14.90;;;3.88;;
39814;SDS011;25495;45.948;4.568;2022-11-14T01:42:30;13.73;;;7.15;;
39814;SDS011;25495;45.948;4.568;2022-11-14T01:44:57;5.97;;;2.92;;
39814;SDS011;25495;45.948;4.568;2022-11-14T01:47:28;5.60;;;2.75;;
39814;SDS011;25495;45.948;4.568;2022-11-14T01:49:57;6.22;;;3.20;;
39814;SDS011;25495;45.948;4.568;2022-11-14T01:52:30;5.68;;;2.95;;
39814;SDS011;25495;45.948;4.568;2022-11-14T01:55:00;5.82;;;2.70;;
39814;SDS011;25495;45.948;4.568;2022-11-14T01:57:35;7.65;;;3.47;;
39814;SDS011;25495;45.948;4.568;2022-11-14T02:00:06;7.10;;;3.75;;
39814;SDS011;25495;45.948;4.568;2022-11-14T02:02:36;6.20;;;2.85;;
39814;SDS011;25495;45.948;4.568;2022-11-14T02:05:10;6.28;;;3.20;;
39814;SDS011;25495;45.948;4.568;2022-11-14T02:07:40;9.63;;;3.20;;
39814;SDS011;25495;45.948;4.568;2022-11-14T02:10:14;9.57;;;2.92;;
39814;SDS011;25495;45.948;4.568;2022-11-14T02:12:42;6.05;;;2.95;;
39814;SDS011;25495;45.948;4.568;2022-11-14T02:15:10;11.45;;;4.65;;
39814;SDS011;25495;45.948;4.568;2022-11-14T02:17:39;7.20;;;2.75;;
39814;SDS011;25495;45.948;4.568;2022-11-14T02:22:43;4.60;;;2.50;;
39814;SDS011;25495;45.948;4.568;2022-11-14T02:25:10;5.50;;;2.67;;
39814;SDS011;25495;45.948;4.568;2022-11-14T02:27:48;4.82;;;2.65;;
39814;SDS011;25495;45.948;4.568;2022-11-14T02:30:17;5.68;;;2.80;;
39814;SDS011;25495;45.948;4.568;2022-11-14T02:32:46;5.00;;;2.58;;
39814;SDS011;25495;45.948;4.568;2022-11-14T02:35:12;5.70;;;3.25;;
39814;SDS011;25495;45.948;4.568;2022-11-14T02:37:39;7.55;;;2.67;;
39814;SDS011;25495;45.948;4.568;2022-11-14T02:40:07;4.85;;;2.85;;
39814;SDS011;25495;45.948;4.568;2022-11-14T02:42:35;6.15;;;3.05;;
39814;SDS011;25495;45.948;4.568;2022-11-14T02:45:04;8.25;;;2.55;;
39814;SDS011;25495;45.948;4.568;2022-11-14T02:47:31;5.03;;;2.30;;
39814;SDS011;25495;45.948;4.568;2022-11-14T02:49:59;4.78;;;2.28;;
39814;SDS011;25495;45.948;4.568;2022-11-14T02:52:27;8.60;;;4.97;;
39814;SDS011;25495;45.948;4.568;2022-11-14T02:54:55;6.38;;;2.35;;
39814;SDS011;25495;45.948;4.568;2022-11-14T02:57:31;7.50;;;2.90;;
39814;SDS011;25495;45.948;4.568;2022-11-14T02:59:58;5.60;;;2.25;;
39814;SDS011;25495;45.948;4.568;2022-11-14T03:02:25;7.15;;;3.75;;
39814;SDS011;25495;45.948;4.568;2022-11-14T03:04:51;4.07;;;2.40;;
39814;SDS011;25495;45.948;4.568;2022-11-14T03:07:18;8.10;;;2.83;;
39814;SDS011;25495;45.948;4.568;2022-11-14T03:09:44;6.63;;;2.75;;
39814;SDS011;25495;45.948;4.568;2022-11-14T03:12:14;4.75;;;2.38;;
39814;SDS011;25495;45.948;4.568;2022-11-14T03:14:42;7.53;;;3.30;;
39814;SDS011;25495;45.948;4.568;2022-11-14T03:17:09;6.75;;;2.33;;
39814;SDS011;25495;45.948;4.568;2022-11-14T03:19:35;8.80;;;2.75;;
39814;SDS011;25495;45.948;4.568;2022-11-14T03:22:04;7.57;;;2.72;;
39814;SDS011;25495;45.948;4.568;2022-11-14T03:24:31;4.95;;;2.38;;
39814;SDS011;25495;45.948;4.568;2022-11-14T03:26:57;4.22;;;2.20;;
39814;SDS011;25495;45.948;4.568;2022-11-14T03:29:24;10.90;;;3.28;;
39814;SDS011;25495;45.948;4.568;2022-11-14T03:31:51;6.68;;;3.05;;
39814;SDS011;25495;45.948;4.568;2022-11-14T03:34:18;4.13;;;2.53;;
39814;SDS011;25495;45.948;4.568;2022-11-14T03:36:44;6.70;;;2.92;;
39814;SDS011;25495;45.948;4.568;2022-11-14T03:39:12;10.65;;;4.47;;
39814;SDS011;25495;45.948;4.568;2022-11-14T03:41:44;8.85;;;3.95;;
39814;SDS011;25495;45.948;4.568;2022-11-14T03:44:11;7.72;;;4.15;;
39814;SDS011;25495;45.948;4.568;2022-11-14T03:46:38;6.07;;;3.47;;
39814;SDS011;25495;45.948;4.568;2022-11-14T03:49:04;11.90;;;4.28;;
39814;SDS011;25495;45.948;4.568;2022-11-14T03:51:31;12.20;;;6.15;;
39814;SDS011;25495;45.948;4.568;2022-11-14T03:53:58;5.55;;;3.53;;
39814;SDS011;25495;45.948;4.568;2022-11-14T03:56:24;4.53;;;2.33;;
39814;SDS011;25495;45.948;4.568;2022-11-14T03:58:53;7.82;;;2.92;;
39814;SDS011;25495;45.948;4.568;2022-11-14T04:01:22;6.75;;;3.15;;
39814;SDS011;25495;45.948;4.568;2022-11-14T04:03:52;5.38;;;3.33;;
39814;SDS011;25495;45.948;4.568;2022-11-14T04:06:20;5.13;;;2.60;;
39814;SDS011;25495;45.948;4.568;2022-11-14T04:08:48;4.38;;;2.05;;
39814;SDS011;25495;45.948;4.568;2022-11-14T04:11:16;6.82;;;2.30;;
39814;SDS011;25495;45.948;4.568;2022-11-14T04:13:43;6.70;;;2.60;;
39814;SDS011;25495;45.948;4.568;2022-11-14T04:16:10;6.78;;;2.25;;
39814;SDS011;25495;45.948;4.568;2022-11-14T04:18:37;7.07;;;3.05;;
39814;SDS011;25495;45.948;4.568;2022-11-14T04:21:04;4.28;;;2.40;;
39814;SDS011;25495;45.948;4.568;2022-11-14T04:23:31;4.82;;;2.22;;
39814;SDS011;25495;45.948;4.568;2022-11-14T04:25:58;3.58;;;2.13;;
39814;SDS011;25495;45.948;4.568;2022-11-14T04:28:25;5.60;;;2.35;;
39814;SDS011;25495;45.948;4.568;2022-11-14T04:30:51;8.43;;;2.92;;
39814;SDS011;25495;45.948;4.568;2022-11-14T04:33:19;4.95;;;2.63;;
39814;SDS011;25495;45.948;4.568;2022-11-14T04:35:47;15.50;;;3.05;;
39814;SDS011;25495;45.948;4.568;2022-11-14T04:38:13;3.58;;;2.53;;
39814;SDS011;25495;45.948;4.568;2022-11-14T04:40:44;6.03;;;2.85;;
39814;SDS011;25495;45.948;4.568;2022-11-14T04:43:19;4.55;;;2.65;;
39814;SDS011;25495;45.948;4.568;2022-11-14T04:45:46;4.90;;;2.75;;
39814;SDS011;25495;45.948;4.568;2022-11-14T04:48:13;7.00;;;3.15;;
39814;SDS011;25495;45.948;4.568;2022-11-14T04:50:40;7.55;;;3.38;;
39814;SDS011;25495;45.948;4.568;2022-11-14T04:53:08;5.68;;;3.30;;
39814;SDS011;25495;45.948;4.568;2022-11-14T04:55:35;6.60;;;3.78;;
39814;SDS011;25495;45.948;4.568;2022-11-14T04:58:02;7.68;;;3.83;;
39814;SDS011;25495;45.948;4.568;2022-11-14T05:00:29;6.28;;;4.10;;
39814;SDS011;25495;45.948;4.568;2022-11-14T05:02:57;11.27;;;5.00;;
39814;SDS011;25495;45.948;4.568;2022-11-14T05:05:24;11.50;;;3.97;;
39814;SDS011;25495;45.948;4.568;2022-11-14T05:07:51;7.05;;;3.63;;
39814;SDS011;25495;45.948;4.568;2022-11-14T05:10:19;10.98;;;3.85;;
39814;SDS011;25495;45.948;4.568;2022-11-14T05:12:46;8.85;;;4.55;;
39814;SDS011;25495;45.948;4.568;2022-11-14T05:15:12;11.73;;;5.20;;
39814;SDS011;25495;45.948;4.568;2022-11-14T05:17:42;12.27;;;4.50;;
39814;SDS011;25495;45.948;4.568;2022-11-14T05:20:09;8.93;;;4.57;;
39814;SDS011;25495;45.948;4.568;2022-11-14T05:22:38;12.45;;;5.07;;
39814;SDS011;25495;45.948;4.568;2022-11-14T05:25:05;10.73;;;5.60;;
39814;SDS011;25495;45.948;4.568;2022-11-14T05:27:32;10.82;;;5.10;;
39814;SDS011;25495;45.948;4.568;2022-11-14T05:30:00;10.57;;;4.60;;
39814;SDS011;25495;45.948;4.568;2022-11-14T05:32:27;11.18;;;4.88;;
39814;SDS011;25495;45.948;4.568;2022-11-14T05:34:54;11.77;;;4.68;;
39814;SDS011;25495;45.948;4.568;2022-11-14T05:37:23;12.55;;;5.40;;
39814;SDS011;25495;45.948;4.568;2022-11-14T05:39:49;7.40;;;4.07;;
39814;SDS011;25495;45.948;4.568;2022-11-14T05:42:16;8.63;;;4.20;;
39814;SDS011;25495;45.948;4.568;2022-11-14T05:44:44;10.85;;;4.30;;
39814;SDS011;25495;45.948;4.568;2022-11-14T05:47:11;8.13;;;4.05;;
39814;SDS011;25495;45.948;4.568;2022-11-14T05:49:40;6.97;;;3.80;;
39814;SDS011;25495;45.948;4.568;2022-11-14T05:52:07;7.53;;;3.65;;
39814;SDS011;25495;45.948;4.568;2022-11-14T05:54:36;7.18;;;3.53;;
39814;SDS011;25495;45.948;4.568;2022-11-14T05:57:05;8.15;;;4.40;;
39814;SDS011;25495;45.948;4.568;2022-11-14T05:59:37;7.80;;;3.85;;
39814;SDS011;25495;45.948;4.568;2022-11-14T06:02:04;9.77;;;3.88;;
39814;SDS011;25495;45.948;4.568;2022-11-14T06:04:31;7.20;;;3.85;;
39814;SDS011;25495;45.948;4.568;2022-11-14T06:06:59;14.13;;;5.20;;
39814;SDS011;25495;45.948;4.568;2022-11-14T06:09:25;11.43;;;4.88;;
39814;SDS011;25495;45.948;4.568;2022-11-14T06:11:52;11.68;;;4.40;;
39814;SDS011;25495;45.948;4.568;2022-11-14T06:14:19;9.52;;;5.28;;
39814;SDS011;25495;45.948;4.568;2022-11-14T06:16:45;9.95;;;4.45;;
39814;SDS011;25495;45.948;4.568;2022-11-14T06:19:14;7.97;;;4.55;;
39814;SDS011;25495;45.948;4.568;2022-11-14T06:21:40;7.78;;;3.95;;
39814;SDS011;25495;45.948;4.568;2022-11-14T06:24:08;8.90;;;4.50;;
39814;SDS011;25495;45.948;4.568;2022-11-14T06:26:35;15.50;;;7.22;;
39814;SDS011;25495;45.948;4.568;2022-11-14T06:29:02;29.42;;;13.30;;
39814;SDS011;25495;45.948;4.568;2022-11-14T06:31:30;29.48;;;14.52;;
39814;SDS011;25495;45.948;4.568;2022-11-14T06:33:56;11.93;;;6.28;;
39814;SDS011;25495;45.948;4.568;2022-11-14T06:36:23;15.85;;;7.40;;
39814;SDS011;25495;45.948;4.568;2022-11-14T06:38:54;8.52;;;4.22;;
39814;SDS011;25495;45.948;4.568;2022-11-14T06:41:23;21.80;;;10.07;;
39814;SDS011;25495;45.948;4.568;2022-11-14T06:43:50;11.43;;;6.40;;
39814;SDS011;25495;45.948;4.568;2022-11-14T06:46:19;12.13;;;5.20;;
39814;SDS011;25495;45.948;4.568;2022-11-14T06:48:50;11.27;;;6.50;;
39814;SDS011;25495;45.948;4.568;2022-11-14T06:51:18;9.98;;;6.05;;
39814;SDS011;25495;45.948;4.568;2022-11-14T06:53:45;10.88;;;6.40;;
39814;SDS011;25495;45.948;4.568;2022-11-14T06:56:13;9.43;;;5.70;;
39814;SDS011;25495;45.948;4.568;2022-11-14T06:58:43;7.72;;;5.05;;
39814;SDS011;25495;45.948;4.568;2022-11-14T07:01:13;9.98;;;6.05;;
39814;SDS011;25495;45.948;4.568;2022-11-14T07:06:10;7.47;;;4.22;;
39814;SDS011;25495;45.948;4.568;2022-11-14T07:08:42;8.60;;;5.03;;
39814;SDS011;25495;45.948;4.568;2022-11-14T07:11:10;9.77;;;5.18;;
39814;SDS011;25495;45.948;4.568;2022-11-14T07:13:50;7.35;;;4.82;;
39814;SDS011;25495;45.948;4.568;2022-11-14T07:16:19;7.13;;;3.78;;
39814;SDS011;25495;45.948;4.568;2022-11-14T07:18:48;6.75;;;4.03;;
39814;SDS011;25495;45.948;4.568;2022-11-14T07:21:15;6.13;;;3.70;;
39814;SDS011;25495;45.948;4.568;2022-11-14T07:23:41;6.65;;;3.88;;
39814;SDS011;25495;45.948;4.568;2022-11-14T07:26:10;5.43;;;3.58;;
39814;SDS011;25495;45.948;4.568;2022-11-14T07:28:40;6.97;;;3.83;;
39814;SDS011;25495;45.948;4.568;2022-11-14T07:31:10;5.95;;;4.03;;
39814;SDS011;25495;45.948;4.568;2022-11-14T07:33:38;8.98;;;3.45;;
39814;SDS011;25495;45.948;4.568;2022-11-14T07:36:05;6.88;;;4.35;;
39814;SDS011;25495;45.948;4.568;2022-11-14T07:38:34;7.60;;;3.63;;
39814;SDS011;25495;45.948;4.568;2022-11-14T07:41:04;8.38;;;3.80;;
39814;SDS011;25495;45.948;4.568;2022-11-14T07:43:34;8.35;;;4.53;;
39814;SDS011;25495;45.948;4.568;2022-11-14T07:46:07;8.25;;;5.40;;
39814;SDS011;25495;45.948;4.568;2022-11-14T07:48:41;7.20;;;4.63;;
39814;SDS011;25495;45.948;4.568;2022-11-14T07:51:09;4.80;;;3.30;;
39814;SDS011;25495;45.948;4.568;2022-11-14T07:53:43;7.68;;;3.78;;
39814;SDS011;25495;45.948;4.568;2022-11-14T07:56:11;8.70;;;4.13;;
39814;SDS011;25495;45.948;4.568;2022-11-14T07:58:38;6.03;;;3.42;;
39814;SDS011;25495;45.948;4.568;2022-11-14T08:01:08;5.97;;;3.63;;
39814;SDS011;25495;45.948;4.568;2022-11-14T08:03:39;6.85;;;4.50;;
39814;SDS011;25495;45.948;4.568;2022-11-14T08:06:08;4.63;;;3.25;;
39814;SDS011;25495;45.948;4.568;2022-11-14T08:08:37;5.82;;;3.08;;
39814;SDS011;25495;45.948;4.568;2022-11-14T08:11:08;4.88;;;3.22;;
39814;SDS011;25495;45.948;4.568;2022-11-14T08:13:35;5.57;;;2.97;;
39814;SDS011;25495;45.948;4.568;2022-11-14T08:16:06;6.72;;;3.40;;
39814;SDS011;25495;45.948;4.568;2022-11-14T08:18:37;6.00;;;3.80;;
39814;SDS011;25495;45.948;4.568;2022-11-14T08:21:05;6.18;;;4.00;;
39814;SDS011;25495;45.948;4.568;2022-11-14T08:23:34;15.15;;;6.35;;
39814;SDS011;25495;45.948;4.568;2022-11-14T08:26:01;22.83;;;9.10;;
39814;SDS011;25495;45.948;4.568;2022-11-14T08:28:30;29.52;;;11.27;;
39814;SDS011;25495;45.948;4.568;2022-11-14T08:31:04;15.05;;;7.47;;
39814;SDS011;25495;45.948;4.568;2022-11-14T08:33:34;11.27;;;6.15;;
39814;SDS011;25495;45.948;4.568;2022-11-14T08:36:05;10.15;;;5.45;;
39814;SDS011;25495;45.948;4.568;2022-11-14T08:38:34;5.95;;;3.92;;
39814;SDS011;25495;45.948;4.568;2022-11-14T08:41:02;7.28;;;4.00;;
39814;SDS011;25495;45.948;4.568;2022-11-14T08:43:30;5.90;;;3.95;;
39814;SDS011;25495;45.948;4.568;2022-11-14T08:46:00;8.55;;;3.67;;
39814;SDS011;25495;45.948;4.568;2022-11-14T08:48:31;5.75;;;3.83;;
39814;SDS011;25495;45.948;4.568;2022-11-14T08:51:01;23.35;;;10.55;;
39814;SDS011;25495;45.948;4.568;2022-11-14T08:53:32;10.50;;;4.10;;
39814;SDS011;25495;45.948;4.568;2022-11-14T08:56:01;7.97;;;4.50;;
39814;SDS011;25495;45.948;4.568;2022-11-14T08:58:28;14.93;;;8.15;;
39814;SDS011;25495;45.948;4.568;2022-11-14T09:01:04;8.60;;;5.45;;
39814;SDS011;25495;45.948;4.568;2022-11-14T09:03:32;11.40;;;4.75;;
39814;SDS011;25495;45.948;4.568;2022-11-14T09:06:01;8.43;;;4.78;;
39814;SDS011;25495;45.948;4.568;2022-11-14T09:08:30;19.05;;;7.70;;
39814;SDS011;25495;45.948;4.568;2022-11-14T09:11:00;11.48;;;6.22;;
39814;SDS011;25495;45.948;4.568;2022-11-14T09:13:31;10.45;;;3.85;;
39814;SDS011;25495;45.948;4.568;2022-11-14T09:15:59;19.42;;;9.40;;
39814;SDS011;25495;45.948;4.568;2022-11-14T09:18:28;29.63;;;12.57;;
39814;SDS011;25495;45.948;4.568;2022-11-14T09:21:01;12.70;;;6.65;;
39814;SDS011;25495;45.948;4.568;2022-11-14T09:23:32;12.98;;;6.55;;
39814;SDS011;25495;45.948;4.568;2022-11-14T09:26:04;9.07;;;4.40;;
39814;SDS011;25495;45.948;4.568;2022-11-14T09:28:32;8.40;;;4.20;;
39814;SDS011;25495;45.948;4.568;2022-11-14T09:31:08;6.75;;;4.30;;
39814;SDS011;25495;45.948;4.568;2022-11-14T09:33:38;7.90;;;4.57;;
39814;SDS011;25495;45.948;4.568;2022-11-14T09:36:08;5.67;;;3.43;;
39814;SDS011;25495;45.948;4.568;2022-11-14T09:38:42;6.22;;;3.92;;
39814;SDS011;25495;45.948;4.568;2022-11-14T09:41:25;7.75;;;4.20;;
39814;SDS011;25495;45.948;4.568;2022-11-14T09:46:49;7.97;;;3.83;;
39814;SDS011;25495;45.948;4.568;2022-11-14T09:52:14;8.20;;;4.25;;
39814;SDS011;25495;45.948;4.568;2022-11-14T09:54:55;7.63;;;3.90;;
39814;SDS011;25495;45.948;4.568;2022-11-14T09:57:42;7.63;;;4.15;;
39814;SDS011;25495;45.948;4.568;2022-11-14T10:00:18;8.57;;;3.97;;
39814;SDS011;25495;45.948;4.568;2022-11-14T10:08:40;24.52;;;13.45;;
39814;SDS011;25495;45.948;4.568;2022-11-14T10:11:21;25.42;;;12.40;;
39814;SDS011;25495;45.948;4.568;2022-11-14T10:14:19;12.25;;;5.95;;
39814;SDS011;25495;45.948;4.568;2022-11-14T10:26:29;9.70;;;5.55;;
39814;SDS011;25495;45.948;4.568;2022-11-14T10:37:16;5.93;;;3.47;;
39814;SDS011;25495;45.948;4.568;2022-11-14T10:39:53;8.27;;;4.82;;
39814;SDS011;25495;45.948;4.568;2022-11-14T10:42:47;12.48;;;6.85;;
39814;SDS011;25495;45.948;4.568;2022-11-14T10:47:59;8.15;;;4.53;;
39814;SDS011;25495;45.948;4.568;2022-11-14T10:51:14;8.15;;;4.15;;
39814;SDS011;25495;45.948;4.568;2022-11-14T10:56:17;5.38;;;3.20;;
39814;SDS011;25495;45.948;4.568;2022-11-14T10:58:47;6.25;;;3.33;;
39814;SDS011;25495;45.948;4.568;2022-11-14T11:01:34;3.20;;;2.63;;
39814;SDS011;25495;45.948;4.568;2022-11-14T11:06:52;14.13;;;5.10;;
39814;SDS011;25495;45.948;4.568;2022-11-14T11:09:26;9.05;;;4.53;;
39814;SDS011;25495;45.948;4.568;2022-11-14T11:12:16;10.50;;;4.60;;
39814;SDS011;25495;45.948;4.568;2022-11-14T11:14:46;4.97;;;3.47;;
39814;SDS011;25495;45.948;4.568;2022-11-14T11:19:45;11.63;;;5.47;;
39814;SDS011;25495;45.948;4.568;2022-11-14T11:22:24;23.67;;;9.00;;
39814;SDS011;25495;45.948;4.568;2022-11-14T11:30:54;8.75;;;5.00;;
39814;SDS011;25495;45.948;4.568;2022-11-14T11:33:29;17.13;;;5.50;;
39814;SDS011;25495;45.948;4.568;2022-11-14T11:36:19;10.25;;;5.07;;
39814;SDS011;25495;45.948;4.568;2022-11-14T11:38:49;11.80;;;5.22;;
39814;SDS011;25495;45.948;4.568;2022-11-14T11:44:13;19.50;;;6.03;;
39814;SDS011;25495;45.948;4.568;2022-11-14T11:46:58;14.30;;;5.55;;
39814;SDS011;25495;45.948;4.568;2022-11-14T11:49:43;10.13;;;4.45;;
39814;SDS011;25495;45.948;4.568;2022-11-14T11:52:18;11.25;;;5.07;;
39814;SDS011;25495;45.948;4.568;2022-11-14T11:57:56;11.77;;;5.85;;
39814;SDS011;25495;45.948;4.568;2022-11-14T12:00:37;11.10;;;4.40;;
39814;SDS011;25495;45.948;4.568;2022-11-14T12:03:08;9.40;;;4.13;;
39814;SDS011;25495;45.948;4.568;2022-11-14T12:10:59;9.70;;;5.20;;
39814;SDS011;25495;45.948;4.568;2022-11-14T12:16:22;9.35;;;5.13;;
39814;SDS011;25495;45.948;4.568;2022-11-14T12:24:58;12.38;;;5.88;;
39814;SDS011;25495;45.948;4.568;2022-11-14T12:31:00;8.25;;;4.45;;
39814;SDS011;25495;45.948;4.568;2022-11-14T12:33:35;12.00;;;5.35;;
39814;SDS011;25495;45.948;4.568;2022-11-14T12:36:15;10.25;;;3.80;;
39814;SDS011;25495;45.948;4.568;2022-11-14T12:38:45;7.43;;;4.20;;
39814;SDS011;25495;45.948;4.568;2022-11-14T12:41:26;11.10;;;4.50;;
39814;SDS011;25495;45.948;4.568;2022-11-14T13:03:17;10.07;;;3.47;;
39814;SDS011;25495;45.948;4.568;2022-11-14T13:06:06;7.63;;;4.20;;
39814;SDS011;25495;45.948;4.568;2022-11-14T13:09:10;7.88;;;3.53;;
39814;SDS011;25495;45.948;4.568;2022-11-14T13:11:55;6.80;;;3.92;;
39814;SDS011;25495;45.948;4.568;2022-11-14T13:14:51;6.45;;;3.95;;
39814;SDS011;25495;45.948;4.568;2022-11-14T13:17:39;5.63;;;3.03;;
39814;SDS011;25495;45.948;4.568;2022-11-14T13:28:47;5.72;;;3.13;;
39814;SDS011;25495;45.948;4.568;2022-11-14T13:33:45;6.25;;;3.70;;
39814;SDS011;25495;45.948;4.568;2022-11-14T13:39:15;8.07;;;4.03;;
39814;SDS011;25495;45.948;4.568;2022-11-14T13:47:28;6.60;;;4.13;;
39814;SDS011;25495;45.948;4.568;2022-11-14T13:50:10;9.32;;;4.75;;
39814;SDS011;25495;45.948;4.568;2022-11-14T13:52:43;9.00;;;4.10;;
39814;SDS011;25495;45.948;4.568;2022-11-14T13:57:51;6.90;;;4.28;;
39814;SDS011;25495;45.948;4.568;2022-11-14T14:00:22;6.30;;;4.03;;
39814;SDS011;25495;45.948;4.568;2022-11-14T14:11:41;5.65;;;3.92;;
39814;SDS011;25495;45.948;4.568;2022-11-14T14:17:21;7.97;;;3.90;;
39814;SDS011;25495;45.948;4.568;2022-11-14T14:20:11;6.75;;;3.58;;
39814;SDS011;25495;45.948;4.568;2022-11-14T14:22:56;7.40;;;4.20;;
39814;SDS011;25495;45.948;4.568;2022-11-14T14:26:16;6.25;;;4.00;;
39814;SDS011;25495;45.948;4.568;2022-11-14T14:28:41;7.60;;;4.22;;
39814;SDS011;25495;45.948;4.568;2022-11-14T14:31:10;7.45;;;3.97;;
39814;SDS011;25495;45.948;4.568;2022-11-14T14:33:44;10.07;;;4.57;;
39814;SDS011;25495;45.948;4.568;2022-11-14T14:36:29;8.80;;;4.07;;
39814;SDS011;25495;45.948;4.568;2022-11-14T14:39:16;5.40;;;3.15;;
39814;SDS011;25495;45.948;4.568;2022-11-14T14:41:45;9.35;;;3.80;;
39814;SDS011;25495;45.948;4.568;2022-11-14T14:44:18;5.30;;;3.67;;
39814;SDS011;25495;45.948;4.568;2022-11-14T14:47:26;6.00;;;3.75;;
39814;SDS011;25495;45.948;4.568;2022-11-14T14:50:03;4.40;;;3.10;;
39814;SDS011;25495;45.948;4.568;2022-11-14T14:52:54;9.77;;;4.65;;
39814;SDS011;25495;45.948;4.568;2022-11-14T14:55:26;9.00;;;5.10;;
39814;SDS011;25495;45.948;4.568;2022-11-14T15:00:48;7.40;;;3.53;;
39814;SDS011;25495;45.948;4.568;2022-11-14T15:03:30;12.05;;;5.70;;
39814;SDS011;25495;45.948;4.568;2022-11-14T15:06:01;14.75;;;5.82;;
39814;SDS011;25495;45.948;4.568;2022-11-14T15:08:42;18.17;;;7.25;;
39814;SDS011;25495;45.948;4.568;2022-11-14T15:11:10;16.63;;;6.20;;
39814;SDS011;25495;45.948;4.568;2022-11-14T15:13:39;13.63;;;5.88;;
39814;SDS011;25495;45.948;4.568;2022-11-14T15:16:06;11.07;;;5.10;;
39814;SDS011;25495;45.948;4.568;2022-11-14T15:18:34;9.70;;;4.15;;
39814;SDS011;25495;45.948;4.568;2022-11-14T15:21:23;7.80;;;3.97;;
39814;SDS011;25495;45.948;4.568;2022-11-14T15:24:12;22.08;;;9.27;;
39814;SDS011;25495;45.948;4.568;2022-11-14T15:26:44;18.07;;;6.13;;
39814;SDS011;25495;45.948;4.568;2022-11-14T15:29:18;14.32;;;6.03;;
39814;SDS011;25495;45.948;4.568;2022-11-14T15:32:05;15.63;;;6.20;;
39814;SDS011;25495;45.948;4.568;2022-11-14T15:35:05;10.13;;;4.20;;
39814;SDS011;25495;45.948;4.568;2022-11-14T15:40:36;9.18;;;4.20;;
39814;SDS011;25495;45.948;4.568;2022-11-14T15:46:03;10.65;;;4.93;;
39814;SDS011;25495;45.948;4.568;2022-11-14T15:48:29;21.15;;;6.88;;
39814;SDS011;25495;45.948;4.568;2022-11-14T15:50:55;10.65;;;4.82;;
39814;SDS011;25495;45.948;4.568;2022-11-14T15:53:22;16.33;;;4.88;;
39814;SDS011;25495;45.948;4.568;2022-11-14T15:55:50;30.67;;;8.23;;
39814;SDS011;25495;45.948;4.568;2022-11-14T15:58:17;30.52;;;8.45;;
39814;SDS011;25495;45.948;4.568;2022-11-14T16:00:43;7.63;;;3.47;;
39814;SDS011;25495;45.948;4.568;2022-11-14T16:03:14;26.23;;;7.07;;
39814;SDS011;25495;45.948;4.568;2022-11-14T16:05:46;8.63;;;3.85;;
39814;SDS011;25495;45.948;4.568;2022-11-14T16:08:12;10.82;;;4.18;;
39814;SDS011;25495;45.948;4.568;2022-11-14T16:10:38;8.40;;;4.05;;
39814;SDS011;25495;45.948;4.568;2022-11-14T16:13:04;11.27;;;4.45;;
39814;SDS011;25495;45.948;4.568;2022-11-14T16:15:30;30.90;;;7.78;;
39814;SDS011;25495;45.948;4.568;2022-11-14T16:17:56;7.70;;;3.80;;
39814;SDS011;25495;45.948;4.568;2022-11-14T16:20:27;6.85;;;2.65;;
39814;SDS011;25495;45.948;4.568;2022-11-14T16:22:56;6.40;;;3.20;;
39814;SDS011;25495;45.948;4.568;2022-11-14T16:25:26;4.80;;;2.30;;
39814;SDS011;25495;45.948;4.568;2022-11-14T16:27:53;4.70;;;2.40;;
39814;SDS011;25495;45.948;4.568;2022-11-14T16:30:20;2.25;;;1.40;;
39814;SDS011;25495;45.948;4.568;2022-11-14T16:32:48;4.75;;;2.65;;
39814;SDS011;25495;45.948;4.568;2022-11-14T16:35:16;5.45;;;2.72;;
39814;SDS011;25495;45.948;4.568;2022-11-14T16:37:48;4.55;;;2.33;;
39814;SDS011;25495;45.948;4.568;2022-11-14T16:42:49;4.07;;;2.30;;
39814;SDS011;25495;45.948;4.568;2022-11-14T16:45:17;4.43;;;2.95;;
39814;SDS011;25495;45.948;4.568;2022-11-14T16:47:47;4.07;;;2.20;;
39814;SDS011;25495;45.948;4.568;2022-11-14T16:50:13;3.35;;;2.20;;
39814;SDS011;25495;45.948;4.568;2022-11-14T16:52:39;3.78;;;2.50;;
39814;SDS011;25495;45.948;4.568;2022-11-14T16:55:06;6.50;;;3.10;;
39814;SDS011;25495;45.948;4.568;2022-11-14T16:57:34;6.07;;;3.88;;
39814;SDS011;25495;45.948;4.568;2022-11-14T17:00:03;4.97;;;3.10;;
39814;SDS011;25495;45.948;4.568;2022-11-14T17:02:31;4.30;;;2.60;;
39814;SDS011;25495;45.948;4.568;2022-11-14T17:04:57;4.90;;;2.92;;
39814;SDS011;25495;45.948;4.568;2022-11-14T17:07:23;5.18;;;2.85;;
39814;SDS011;25495;45.948;4.568;2022-11-14T17:09:49;4.82;;;3.13;;
39814;SDS011;25495;45.948;4.568;2022-11-14T17:12:15;6.32;;;3.03;;
39814;SDS011;25495;45.948;4.568;2022-11-14T17:14:41;10.50;;;5.15;;
39814;SDS011;25495;45.948;4.568;2022-11-14T17:17:07;7.68;;;3.08;;
39814;SDS011;25495;45.948;4.568;2022-11-14T17:19:33;7.72;;;6.30;;
39814;SDS011;25495;45.948;4.568;2022-11-14T17:21:59;3.42;;;2.40;;
39814;SDS011;25495;45.948;4.568;2022-11-14T17:24:25;6.05;;;4.07;;
39814;SDS011;25495;45.948;4.568;2022-11-14T17:26:50;3.53;;;2.42;;